Latest Coastal Weather Observations for Cape Otway

IDV60701

Issued at 12:11 am EST Saturday 28 May 2016 (issued every 10 minutes, with the page automatically refreshed every 10 minutes)

About coastal observations | Map of coastal stations | Coastal observations for VIC | Marine services | Other Formats
Station Details ID: 090015 Name: CAPE OTWAY LIGHTHOUSE Lat: -38.86 Lon: 143.51 Height: 82.0 m
Data from the previous 72 hours. | See also: Recent months at Cape Otway
Date/Time
EST
Temp

°C
Wind Pressure Rain
since 9am
mm
Weather Cloud Vis
km
Sea
Height
m
Swell
Dir
 
Speed
knots
Gust
knots
hPa Trend Height
m
Period
s
Dir
28/12:00am 11.3 SSW 4 7 1008.8 - 0.0 - - - - - - -
 
Date/Time
EST
Temp

°C
Wind Pressure Rain
since 9am
mm
Weather Cloud Vis
km
Sea
Height
m
Swell
Dir
 
Speed
knots
Gust
knots
hPa Trend Height
m
Period
s
Dir
27/11:30pm 9.5 NE 1 6 1008.9 - 0.0 - - - - - - -
27/11:00pm 9.5 NNE 3 4 1008.8 - 0.0 - - - - - - -
27/10:30pm 10.4 WNW 2 5 1008.9 - 0.0 - - - - - - -
27/10:00pm 10.8 W 6 9 1008.8 - 0.0 - - - - - - -
27/09:30pm 11.6 W 4 8 1008.6 - 0.0 - - - - - - -
27/09:00pm 10.5 ENE 4 7 1008.5 - 0.0 - - - - - - -
27/08:30pm 11.6 ESE 6 10 1008.2 - 0.0 - - - - - - -
27/08:00pm 10.3 E 5 9 1007.9 - 0.0 - - - - - - -
27/07:30pm 9.9 E 4 7 1007.7 - 0.0 - - - - - - -
27/07:00pm 8.8 NNE 6 6 1007.4 - 0.0 - - - - - - -
27/06:30pm 9.0 NNE 6 7 1007.3 - 0.0 - - - - - - -
27/06:00pm 9.4 NE 6 6 1007.2 - 0.0 - - - - - - -
27/05:30pm 9.8 NE 5 6 1006.9 - 0.0 - - - - - - -
27/05:00pm 10.2 NNE 5 6 1006.9 - 0.0 - - - - - - -
27/04:30pm 10.9 NNE 4 6 1006.8 - 0.0 - - - - - - -
27/04:00pm 11.1 NE 4 5 1006.7 - 0.0 - - - - - - -
27/03:30pm 11.7 E 2 5 1006.5 - 0.0 - - - - - - -
27/03:00pm 12.1 ESE 4 5 1006.4 - 0.0 - - - - - - -
27/02:30pm 12.8 S 2 4 1006.4 - 0.0 - - - - - - -
27/02:00pm 13.1 WSW 5 6 1006.5 - 0.0 - - - - - - -
27/01:30pm 12.6 SW 5 7 1006.7 - 0.0 - - - - - - -
27/01:00pm 12.5 SW 7 9 1006.9 - 0.0 - - - - - - -
27/12:30pm 12.3 W 6 10 1007.0 - 0.0 - - - - - - -
27/12:00pm 11.4 NW 8 12 1007.1 - 0.0 - - - - - - -
27/11:30am 11.7 WNW 7 11 1007.5 - 0.0 - - - - - - -
27/11:00am 12.5 NW 6 10 1007.6 - 0.0 - - - - - - -
27/10:30am 12.1 N 6 9 1007.7 - 0.0 - - - - - - -
27/10:00am 12.3 SW 6 8 1007.7 - 0.0 - - - - - - -
27/09:30am 10.3 NNW 7 10 1007.7 - 0.0 - - - - - - -
27/09:00am 10.2 NNW 8 11 1007.6 - 2.6 - - - - - - -
27/08:30am 10.9 N 5 6 1007.5 - 2.6 - - - - - - -
27/08:00am 11.8 SSW 10 14 1007.2 - 2.6 - - - - - - -
27/07:30am 11.8 SSW 12 17 1007.0 - 2.6 - - - - - - -
27/07:00am 11.7 SSW 13 19 1006.9 - 2.6 - - - - - - -
27/06:30am 11.9 SSW 13 16 1006.8 - 2.6 - - - - - - -
27/06:00am 11.9 SSW 12 17 1006.6 - 2.6 - - - - - - -
27/05:30am 11.8 SW 13 18 1006.6 - 2.6 - - - - - - -
27/05:00am 11.5 SW 12 15 1006.7 - 2.6 - - - - - - -
27/04:30am 11.3 SSW 16 20 1006.8 - 2.6 - - - - - - -
27/04:00am 11.4 SW 12 19 1006.7 - 2.6 - - - - - - -
27/03:30am 11.1 WSW 11 16 1006.6 - 2.6 - - - - - - -
27/03:00am 11.4 W 12 18 1006.8 - 2.6 - - - - - - -
27/02:30am 10.7 SW 12 16 1006.9 - 2.6 - - - - - - -
27/02:06am 10.9 SW 15 25 1006.9 - 2.6 - - - - - - -
27/02:00am 10.7 SW 13 19 1006.9 - 2.6 - - - - - - -
27/01:30am 10.4 SW 16 21 1006.8 - 2.6 - - - - - - -
27/01:15am 11.3 SW 16 31 1006.7 - 2.0 - - - - - - -
27/01:00am 11.8 SW 14 18 1006.8 - 1.8 - - - - - - -
27/12:30am 11.6 SW 17 21 1007.0 - 1.8 - - - - - - -
27/12:00am 11.3 W 14 22 1007.0 - 1.8 - - - - - - -
 
Date/Time
EST
Temp

°C
Wind Pressure Rain
since 9am
mm
Weather Cloud Vis
km
Sea
Height
m
Swell
Dir
 
Speed
knots
Gust
knots
hPa Trend Height
m
Period
s
Dir
26/11:30pm 11.7 SW 15 22 1007.1 - 1.8 - - - - - - -
26/11:00pm 12.0 SW 19 29 1007.0 - 1.8 - - - - - - -
26/10:30pm 11.9 SW 18 23 1007.0 - 1.8 - - - - - - -
26/10:00pm 11.1 WSW 16 29 1007.2 - 1.8 - - - - - - -
26/09:33pm 10.8 SSW 17 27 1007.2 - 1.8 - - - - - - -
26/09:30pm 11.1 SW 18 27 1007.1 - 1.8 - - - - - - -
26/09:27pm 12.2 SW 17 27 1007.1 - 1.8 - - - - - - -
26/09:00pm 11.9 SW 17 23 1007.0 - 1.8 - - - - - - -
26/08:30pm 11.6 SW 17 22 1006.9 - 1.8 - - - - - - -
26/08:00pm 12.4 SW 17 23 1006.6 - 1.6 - - - - - - -
26/07:30pm 12.3 SW 19 26 1006.5 - 1.6 - - - - - - -
26/07:00pm 11.8 SSW 19 27 1006.3 - 1.6 - - - - - - -
26/06:30pm 12.2 SW 18 24 1006.2 - 1.6 - - - - - - -
26/06:00pm 12.1 SW 20 27 1005.8 - 1.6 - - - - - - -
26/05:30pm 12.1 SW 21 25 1005.3 - 1.6 - - - - - - -
26/05:00pm 12.1 SW 19 27 1005.1 - 1.6 - - - - - - -
26/04:30pm 12.2 WSW 15 22 1004.9 - 1.6 - - - - - - -
26/04:00pm 11.8 SW 16 23 1004.7 - 1.6 - - - - - - -
26/03:30pm 12.2 SW 21 27 1004.5 - 1.6 - - - - - - -
26/03:06pm 12.4 SW 17 33 1004.3 - 1.6 - - - - - - -
26/03:00pm 12.1 SW 17 23 1004.2 - 1.6 - - - - - - -
26/02:30pm 11.4 SSW 15 19 1004.1 - 1.6 - - - - - - -
26/02:08pm 11.2 SSW 20 30 1004.0 - 1.6 - - - - - - -
26/02:00pm 11.6 SSW 24 30 1003.8 - 1.4 - - - - - - -
26/01:57pm 11.7 SSW 24 29 1003.7 - 1.2 - - - - - - -
26/01:40pm 12.0 WSW 15 26 1004.0 - 1.0 - - - - - - -
26/01:30pm 12.1 SW 15 19 1004.0 - 1.0 - - - - - - -
26/01:00pm 11.1 WSW 8 11 1004.2 - 1.0 - - - - - - -
26/12:30pm 12.0 SW 11 17 1003.9 - 0.0 - - - - - - -
26/12:00pm 12.6 SW 16 21 1003.7 - 0.0 - - - - - - -
26/11:30am 13.5 SSW 15 27 1003.9 - 0.0 - - - - - - -
26/11:29am 13.6 SSW 15 27 1004.0 - 0.0 - - - - - - -
26/11:00am 13.1 SW 7 10 1004.2 - 0.0 - - - - - - -
26/10:30am 12.0 SSW 11 17 1004.3 - 0.0 - - - - - - -
26/10:00am 12.5 SSW 9 13 1004.0 - 0.0 - - - - - - -
26/09:30am 11.9 SSW 9 11 1004.0 - 0.0 - - - - - - -
26/09:00am 11.9 SW 6 10 1003.9 - 7.4 - - - - - - -
26/08:30am 11.8 SW 5 7 1004.1 - 7.4 - - - - - - -
26/08:00am 11.6 SW 5 8 1004.0 - 7.4 - - - - - - -
26/07:30am 11.2 SSW 5 8 1003.8 - 7.4 - - - - - - -
26/07:00am 10.9 SSW 5 8 1003.7 - 7.4 - - - - - - -
26/06:30am 11.0 SSW 9 16 1003.7 - 6.6 - - - - - - -
26/06:00am 10.3 SSW 10 14 1003.4 - 5.8 - - - - - - -
26/05:30am 10.9 SSW 13 17 1003.4 - 5.4 - - - - - - -
26/05:00am 11.8 SSW 15 22 1003.1 - 4.6 - - - - - - -
26/04:30am 10.8 NNW 10 13 1002.9 - 4.4 - - - - - - -
26/04:00am 10.7 NNW 11 15 1003.1 - 4.4 - - - - - - -
26/03:30am 10.7 NNW 11 15 1003.1 - 4.2 - - - - - - -
26/03:00am 10.7 NNW 13 17 1003.3 - 4.2 - - - - - - -
26/02:30am 10.8 NNW 13 18 1003.7 - 4.2 - - - - - - -
26/02:00am 10.8 NNW 12 16 1003.9 - 4.2 - - - - - - -
26/01:30am 10.8 NNW 12 17 1003.9 - 3.4 - - - - - - -
26/01:00am 10.9 N 13 19 1004.1 - 3.4 - - - - - - -
26/12:30am 11.1 NNW 11 18 1004.6 - 3.4 - - - - - - -
26/12:00am 11.2 N 16 24 1005.0 - 3.4 - - - - - - -
 
Date/Time
EST
Temp

°C
Wind Pressure Rain
since 9am
mm
Weather Cloud Vis
km
Sea
Height
m
Swell
Dir
 
Speed
knots
Gust
knots
hPa Trend Height
m
Period
s
Dir
25/11:30pm 11.2 N 15 21 1005.2 - 3.4 - - - - - - -
25/11:00pm 11.1 N 16 22 1005.2 - 3.4 - - - - - - -
25/10:47pm 11.0 N 16 26 1005.1 - 3.4 - - - - - - -
25/10:30pm 11.1 NNW 17 24 1005.3 - 3.4 - - - - - - -
25/10:15pm 11.1 NNW 15 26 1005.5 - 3.4 - - - - - - -
25/10:00pm 11.1 NNW 14 23 1005.5 - 3.4 - - - - - - -
25/09:30pm 11.1 N 18 31 1005.4 - 3.4 - - - - - - -
25/09:00pm 11.2 N 20 33 1005.4 - 2.2 - - - - - - -
25/08:30pm 11.3 N 17 31 1005.6 - 1.2 - - - - - - -
25/08:00pm 11.3 NNW 16 28 1005.7 - 0.4 - - - - - - -
25/07:37pm 11.4 N 17 27 1005.9 - 0.4 - - - - - - -
25/07:30pm 11.5 N 16 25 1006.0 - 0.2 - - - - - - -
25/07:01pm 11.9 N 16 26 1006.2 - 0.0 - - - - - - -
25/07:00pm 11.9 N 17 26 1006.2 - 0.0 - - - - - - -
25/06:30pm 11.8 NNW 13 21 1006.2 - 0.0 - - - - - - -
25/06:00pm 11.5 NNW 14 20 1006.2 - 0.0 - - - - - - -
25/05:30pm 11.7 N 17 26 1005.9 - 0.0 - - - - - - -
25/05:00pm 12.1 N 15 22 1005.7 - 0.0 - - - - - - -
25/04:34pm 12.3 N 17 28 1005.9 - 0.0 - - - - - - -
25/04:30pm 12.4 N 18 26 1005.9 - 0.0 - - - - - - -
25/04:00pm 12.6 N 16 25 1006.3 - 0.0 - - - - - - -
25/03:56pm 12.7 N 16 26 1006.3 - 0.0 - - - - - - -
25/03:30pm 13.1 NNW 13 22 1006.4 - 0.0 - - - - - - -
25/03:00pm 13.1 NW 10 16 1006.7 - 0.0 - - - - - - -
25/02:30pm 13.3 NW 11 19 1007.2 - 0.0 - - - - - - -
25/02:00pm 13.4 NW 10 20 1007.6 - 0.0 - - - - - - -
25/01:30pm 13.8 NNW 16 29 1007.3 - 0.0 - - - - - - -
25/01:00pm 14.5 N 19 29 1007.2 - 0.0 - - - - - - -
25/12:31pm 14.3 N 20 33 1007.2 - 0.0 - - - - - - -
25/12:30pm 14.3 N 20 28 1007.2 - 0.0 - - - - - - -
25/12:00pm 14.6 N 19 29 1007.8 - 0.0 - - - - - - -
25/11:31am 14.7 N 20 32 1008.6 - 0.0 - - - - - - -
25/11:30am 14.8 N 20 29 1008.6 - 0.0 - - - - - - -
25/11:00am 14.8 N 20 34 1009.1 - 0.0 - - - - - - -
25/10:37am 14.7 N 21 31 1009.2 - 0.0 - - - - - - -
25/10:30am 14.6 N 20 29 1009.2 - 0.0 - - - - - - -
25/10:00am 14.4 N 20 30 1009.6 - 0.0 - - - - - - -
25/09:34am 14.2 N 18 28 1010.3 - 0.0 - - - - - - -
25/09:30am 14.3 N 19 28 1010.4 - 0.0 - - - - - - -
25/09:10am 14.2 N 20 30 1010.5 - 0.0 - - - - - - -
25/09:00am 14.3 N 20 28 1010.6 - 0.0 - - - - - - -
25/08:30am 14.2 N 20 32 1011.3 - 0.0 - - - - - - -
25/08:06am 14.1 N 17 29 1011.7 - 0.0 - - - - - - -
25/08:00am 13.9 N 16 25 1011.8 - 0.0 - - - - - - -
25/07:30am 13.8 N 16 23 1011.8 - 0.0 - - - - - - -
25/07:07am 13.8 N 16 26 1012.0 - 0.0 - - - - - - -
25/07:00am 13.8 N 16 25 1012.0 - 0.0 - - - - - - -
25/06:57am 13.9 N 15 25 1012.0 - 0.0 - - - - - - -
25/06:30am 13.8 N 16 23 1012.3 - 0.0 - - - - - - -
25/06:00am 13.6 N 14 22 1012.6 - 0.0 - - - - - - -
25/05:30am 13.4 N 13 17 1012.9 - 0.0 - - - - - - -
25/05:00am 13.2 N 12 19 1012.9 - 0.0 - - - - - - -
25/04:30am 12.8 N 10 15 1013.2 - 0.0 - - - - - - -
25/04:00am 12.6 N 11 15 1013.6 - 0.0 - - - - - - -
25/03:30am 12.6 N 12 16 1014.0 - 0.0 - - - - - - -
25/03:00am 12.6 N 11 16 1014.3 - 0.0 - - - - - - -
25/02:30am 12.2 N 11 15 1015.1 - 0.0 - - - - - - -
25/02:00am 12.2 N 10 13 1015.4 - 0.0 - - - - - - -
25/01:30am 12.3 N 10 14 1015.7 - 0.0 - - - - - - -
25/01:00am 12.2 N 11 15 1015.9 - 0.0 - - - - - - -
25/12:30am 11.9 N 11 14 1016.3 - 0.0 - - - - - - -

Other Formats:

Comma delimited format used in spreadsheet applications
http://www.bom.gov.au/fwo/IDV60701/IDV60701.94842.axf

JavaScript Object Notation format (JSON) in row-major order
http://www.bom.gov.au/fwo/IDV60701/IDV60701.94842.json